首页
METAR-TAF:

METAR-TAF

机场 :

突尼斯, 突尼斯

突尼斯-迦太基国际机场

纬度: 36-50N, 经度: 010-14E, 海拔: 3米

当前天气观测

该预报发布于14分钟前的18:00 UTC
风速12节,风向东转东南,在东转东北南转南东之间变化
温度 24°C
湿度 41%
气压 1015 hPa
能见度10公里或以上
少量云层高于2600英尺

METAR: DTTA 241800Z 11012KT 070V150 9999 FEW026 24/10 Q1015 NOSIG

时间: 19:14 (18:14 UTC)

预报

该预报发布于35分钟前的17:39 UTC
预报有效从24日的 18点(UTC)到 25日的 18点(UTC)
风速13节,风向南转南东
能见度10公里或以上
少量云层高于2600英尺

TAF: DTTA 241739Z 2418/2518 16013KT 9999 FEW026

超过4000个机场的气象观测和天气预报(METAR&TAF报告)。

可查询的气象台以黄色和红色小点在地图上表示。

将鼠标移到小点上方,可查看气象台名称。

然后点击查看天气观测和预报。

如需切换地图:点击带黑十字的绿色按钮放大地图;点击带横线的绿色按钮缩小地图;或者点击绿色箭头查看邻近地区的地图。


METAR-TAF: